createdAt,value
2019-05-21T00:00:25.847Z,13.90
2019-05-21T00:05:29.763Z,13.93
2019-05-21T00:10:33.634Z,14.80
2019-05-21T00:15:37.492Z,12.53
2019-05-21T00:20:41.390Z,19.60
2019-05-21T00:25:45.267Z,14.18
2019-05-21T00:31:25.835Z,16.87
2019-05-21T00:37:07.384Z,15.13
2019-05-21T00:42:10.392Z,14.90
2019-05-21T00:47:14.808Z,13.28
2019-05-21T00:52:18.728Z,12.68
2019-05-21T00:57:22.650Z,13.45
2019-05-21T01:02:26.559Z,16.60
2019-05-21T01:07:30.490Z,12.60
2019-05-21T01:12:34.393Z,12.93
2019-05-21T01:17:38.406Z,11.50
2019-05-21T01:22:42.315Z,14.47
2019-05-21T01:27:46.228Z,12.55
2019-05-21T01:32:50.146Z,12.80
2019-05-21T01:37:54.060Z,17.27
2019-05-21T01:42:57.985Z,16.70
2019-05-21T01:48:01.835Z,11.15
2019-05-21T01:53:05.762Z,12.15
2019-05-21T01:58:09.674Z,13.78
2019-05-21T02:03:13.581Z,13.08
2019-05-21T02:08:17.494Z,13.68
2019-05-21T02:13:21.406Z,14.95
2019-05-21T02:18:25.272Z,16.10
2019-05-21T02:23:29.085Z,12.23
2019-05-21T02:28:32.976Z,14.73
2019-05-21T02:33:36.842Z,13.90
2019-05-21T02:38:40.723Z,12.68
2019-05-21T02:43:44.597Z,14.33
2019-05-21T02:48:48.486Z,15.88
2019-05-21T02:53:52.358Z,13.03
2019-05-21T02:58:56.226Z,11.03
2019-05-21T03:04:00.102Z,18.52
2019-05-21T03:09:05.085Z,15.78
2019-05-21T03:14:08.963Z,12.80
2019-05-21T03:19:16.577Z,14.33
2019-05-21T03:24:18.357Z,12.65
2019-05-21T03:29:22.224Z,17.67
2019-05-21T03:34:26.097Z,12.33
2019-05-21T03:39:29.993Z,16.62
2019-05-21T03:44:33.981Z,16.93
2019-05-21T03:49:37.853Z,12.40
2019-05-21T03:54:41.731Z,12.75
2019-05-21T03:59:45.616Z,13.30
2019-05-21T04:04:49.488Z,12.58
2019-05-21T04:09:53.365Z,17.77
2019-05-21T04:14:58.863Z,11.05
2019-05-21T04:20:02.789Z,10.45
2019-05-21T04:25:07.332Z,12.98
2019-05-21T04:30:11.595Z,10.38
2019-05-21T04:35:15.572Z,11.45
2019-05-21T04:40:19.487Z,10.30
2019-05-21T04:45:23.472Z,12.40
2019-05-21T04:50:27.381Z,10.78
2019-05-21T04:55:31.297Z,10.28
2019-05-21T05:00:35.232Z,11.90
2019-05-21T05:05:39.157Z,10.78
2019-05-21T05:10:43.016Z,12.55
2019-05-21T05:15:47.921Z,12.15
2019-05-21T05:20:51.857Z,10.38
2019-05-21T05:25:55.782Z,11.95
2019-05-21T05:30:59.722Z,10.43
2019-05-21T05:36:03.673Z,11.63
2019-05-21T05:41:07.630Z,16.12
2019-05-21T05:46:11.479Z,9.73
2019-05-21T05:51:15.399Z,10.05
2019-05-21T05:56:19.382Z,13.18
2019-05-21T06:01:23.821Z,13.18
2019-05-21T06:06:27.739Z,15.25
2019-05-21T06:11:31.665Z,11.40
2019-05-21T06:16:35.644Z,10.43
2019-05-21T06:21:39.559Z,9.05
2019-05-21T06:26:43.467Z,8.58
2019-05-21T06:31:47.378Z,9.20
2019-05-21T06:36:51.309Z,7.67
2019-05-21T06:41:55.244Z,10.08
2019-05-21T06:46:59.158Z,9.03
2019-05-21T06:52:03.083Z,10.72
2019-05-21T06:57:06.993Z,7.67
2019-05-21T07:02:10.899Z,7.80
2019-05-21T07:07:14.980Z,10.98
2019-05-21T07:12:18.981Z,10.72
2019-05-21T07:17:22.957Z,4.70
2019-05-21T07:22:26.878Z,6.87
2019-05-21T07:27:30.794Z,7.37
2019-05-21T07:32:34.753Z,7.80
2019-05-21T07:37:38.621Z,6.35
2019-05-21T07:42:42.579Z,9.43
2019-05-21T07:47:46.499Z,6.15
2019-05-21T07:52:50.415Z,4.95
2019-05-21T07:57:54.342Z,7.20
2019-05-21T08:02:58.304Z,6.40
2019-05-21T08:08:02.934Z,5.00
2019-05-21T08:13:06.930Z,4.33
2019-05-21T08:18:12.431Z,3.15
2019-05-21T08:23:16.308Z,3.87
2019-05-21T08:28:20.185Z,4.03
2019-05-21T08:33:24.042Z,4.20
2019-05-21T08:38:27.953Z,9.80
2019-05-21T08:43:31.817Z,3.90
2019-05-21T08:48:35.690Z,6.00
2019-05-21T08:53:39.571Z,3.25
2019-05-21T08:58:43.515Z,5.35
2019-05-21T09:03:47.645Z,3.12
2019-05-21T09:08:51.490Z,3.77
2019-05-21T09:13:55.631Z,4.20
2019-05-21T09:19:01.064Z,4.55
2019-05-21T09:24:04.966Z,2.90
2019-05-21T09:29:08.844Z,4.15
2019-05-21T09:34:12.713Z,3.08
2019-05-21T09:39:16.773Z,2.65
2019-05-21T09:44:20.700Z,1.75
2019-05-21T09:49:24.634Z,2.80
2019-05-21T09:54:28.553Z,1.90
2019-05-21T09:59:35.102Z,2.12
2019-05-21T10:04:41.048Z,1.80
2019-05-21T10:09:46.592Z,1.72
2019-05-21T10:14:50.513Z,1.80
2019-05-21T10:19:54.437Z,8.90
2019-05-21T10:25:01.311Z,3.87
2019-05-21T10:30:07.429Z,4.90
2019-05-21T10:35:11.483Z,2.30
2019-05-21T10:40:15.539Z,4.42
2019-05-21T10:45:19.709Z,3.15
2019-05-21T10:50:23.636Z,3.50
2019-05-21T10:55:27.502Z,5.12
2019-05-21T11:00:31.892Z,3.27
2019-05-21T11:05:41.355Z,3.33
2019-05-21T11:10:45.478Z,7.37
2019-05-21T11:15:50.023Z,11.18
2019-05-21T11:20:54.151Z,5.78
2019-05-21T11:25:58.159Z,6.60
2019-05-21T11:31:02.111Z,8.30
2019-05-21T11:36:06.194Z,4.42
2019-05-21T11:41:10.353Z,7.67
2019-05-21T11:46:14.559Z,6.37
2019-05-21T11:51:18.941Z,4.33
2019-05-21T11:56:23.382Z,13.10
2019-05-21T12:01:28.959Z,9.15
2019-05-21T12:06:33.081Z,8.40
2019-05-21T12:11:37.426Z,5.22
2019-05-21T12:16:41.760Z,6.70
2019-05-21T12:21:47.544Z,8.75
2019-05-21T12:26:51.755Z,6.67
2019-05-21T12:31:56.095Z,10.38
2019-05-21T12:37:00.738Z,9.35
2019-05-21T12:42:05.538Z,9.45
2019-05-21T12:47:10.115Z,5.00
2019-05-21T12:52:14.255Z,6.40
2019-05-21T12:57:19.916Z,6.62
2019-05-21T13:02:24.364Z,8.50
2019-05-21T13:07:29.602Z,9.00
2019-05-21T13:12:33.757Z,6.03
2019-05-21T13:17:37.989Z,8.83
2019-05-21T13:22:42.018Z,9.83
2019-05-21T13:27:46.263Z,19.30
2019-05-21T13:32:50.413Z,71.70
2019-05-21T13:37:55.339Z,21.07
2019-05-21T13:43:00.834Z,32.17
2019-05-21T13:48:05.153Z,18.92
2019-05-21T13:53:09.202Z,14.87
2019-05-21T13:58:13.723Z,14.33
2019-05-21T14:03:17.717Z,14.33
2019-05-21T14:08:22.110Z,11.57
2019-05-21T14:13:28.357Z,8.85
2019-05-21T14:18:32.795Z,7.53
2019-05-21T14:23:37.068Z,8.98
2019-05-21T14:28:41.160Z,9.53
2019-05-21T14:33:46.742Z,8.28
2019-05-21T14:38:50.750Z,7.97
2019-05-21T14:43:54.986Z,8.03
2019-05-21T14:48:59.364Z,5.40
2019-05-21T14:54:05.066Z,8.53
2019-05-21T14:59:11.269Z,21.17
2019-05-21T15:04:17.241Z,12.85
2019-05-21T15:09:21.851Z,6.47
2019-05-21T15:14:26.389Z,8.05
2019-05-21T15:19:30.872Z,7.17
2019-05-21T15:24:35.311Z,11.05
2019-05-21T15:29:39.723Z,6.97
2019-05-21T15:34:43.612Z,10.70
2019-05-21T15:39:48.128Z,6.97
2019-05-21T15:44:52.149Z,8.20
2019-05-21T15:49:56.398Z,13.15
2019-05-21T15:55:00.290Z,14.78
2019-05-21T16:00:09.452Z,13.58
2019-05-21T16:05:13.996Z,7.37
2019-05-21T16:10:20.591Z,17.23
2019-05-21T16:15:27.786Z,19.95
2019-05-21T16:20:33.219Z,16.27
2019-05-21T16:25:37.249Z,17.00
2019-05-21T16:30:41.716Z,28.00
2019-05-21T16:35:47.701Z,25.20
2019-05-21T16:40:52.732Z,21.95
2019-05-21T16:45:58.532Z,24.37
2019-05-21T16:51:03.798Z,18.55
2019-05-21T16:56:08.011Z,18.77
2019-05-21T17:01:13.682Z,11.85
2019-05-21T17:06:19.650Z,9.93
2019-05-21T17:11:23.678Z,8.35
2019-05-21T17:16:27.711Z,8.58
2019-05-21T17:21:31.946Z,9.75
2019-05-21T17:26:35.905Z,10.30
2019-05-21T17:31:39.841Z,7.33
2019-05-21T17:36:43.785Z,9.65
2019-05-21T17:41:47.711Z,8.13
2019-05-21T17:46:51.693Z,12.65
2019-05-21T17:51:55.776Z,9.90
2019-05-21T17:56:59.744Z,10.82
2019-05-21T18:02:05.353Z,17.15
2019-05-21T18:07:10.679Z,27.90
2019-05-21T18:12:29.747Z,14.45
2019-05-21T18:17:23.434Z,10.15
2019-05-21T18:22:29.510Z,5.05
2019-05-21T18:27:33.409Z,6.85
2019-05-21T18:32:37.655Z,6.65
2019-05-21T18:37:41.541Z,16.60
2019-05-21T18:42:45.559Z,11.03
2019-05-21T18:47:49.581Z,12.78
2019-05-21T18:52:53.497Z,8.88
2019-05-21T18:57:59.008Z,8.03
2019-05-21T19:03:03.196Z,8.50
2019-05-21T19:08:07.133Z,7.53
2019-05-21T19:13:11.053Z,8.70
2019-05-21T19:18:15.632Z,6.80
2019-05-21T19:23:23.106Z,7.05
2019-05-21T19:28:27.761Z,8.35
2019-05-21T19:33:32.449Z,9.05
2019-05-21T19:38:37.269Z,8.80
2019-05-21T19:43:41.970Z,10.75
2019-05-21T19:48:46.462Z,16.55
2019-05-21T19:53:50.436Z,21.42
2019-05-21T19:58:54.404Z,20.30
2019-05-21T20:04:00.363Z,21.40
2019-05-21T20:09:08.198Z,19.05
2019-05-21T20:14:13.039Z,22.95
2019-05-21T20:19:21.022Z,24.40
2019-05-21T20:24:25.332Z,33.63
2019-05-21T20:29:29.330Z,40.40
2019-05-21T20:34:33.942Z,32.08
2019-05-21T20:39:39.040Z,29.00
2019-05-21T20:44:43.077Z,30.27
2019-05-21T20:49:49.063Z,22.65
2019-05-21T20:54:54.869Z,24.20
2019-05-21T20:59:58.867Z,29.92
2019-05-21T21:05:03.238Z,25.75
2019-05-21T21:10:09.043Z,29.12
2019-05-21T21:15:14.230Z,24.55
2019-05-21T21:20:18.676Z,24.55
2019-05-21T21:25:24.364Z,28.12
2019-05-21T21:30:29.340Z,21.97
2019-05-21T21:35:34.841Z,24.07
2019-05-21T21:40:39.121Z,26.95
2019-05-21T21:45:42.994Z,27.25
2019-05-21T21:50:47.872Z,18.75
2019-05-21T21:55:51.773Z,18.05
2019-05-21T22:01:09.129Z,18.37
2019-05-21T22:06:15.545Z,17.95
2019-05-21T22:11:20.199Z,22.87
2019-05-21T22:16:25.235Z,17.82
2019-05-21T22:21:30.118Z,19.12
2019-05-21T22:26:34.235Z,17.42
2019-05-21T22:31:38.312Z,16.55
2019-05-21T22:36:42.394Z,16.05
2019-05-21T22:41:46.310Z,15.98
2019-05-21T22:46:50.430Z,17.35
2019-05-21T22:51:54.450Z,14.35
2019-05-21T22:56:58.383Z,16.37
2019-05-21T23:02:03.996Z,18.42
2019-05-21T23:07:08.181Z,15.55
2019-05-21T23:12:12.319Z,15.98
2019-05-21T23:17:16.693Z,16.55
2019-05-21T23:22:22.517Z,17.10
2019-05-21T23:27:26.496Z,17.75
2019-05-21T23:32:30.473Z,15.80
2019-05-21T23:37:35.590Z,16.60
2019-05-21T23:42:41.237Z,19.37
2019-05-21T23:47:45.228Z,19.48
2019-05-21T23:52:49.452Z,18.27
2019-05-21T23:57:53.676Z,18.23
